Chataignier, Louisiana
Current Conditions -  °F | °C
As of 5:35 PM on Monday 22 Dec 2014 (Local Time) from KOPL Reporting Station
Broken Clouds Broken Clouds  
Wind Chill: 69°   Ceiling: 3100
Heat Index: 69°   Visibility: 10mi
Dew Point: 62°   Wind: 8mph
Humidity: 79%   Direction: 210°SSW
Pressure: 29.66"   Gusts: NA
Location:  30.57°N, 92.32°W
Report Text: KOPL 222335Z AUTO 21007KT 10SM SCT023 BKN031 BKN036 21/17 A2966 RMK AO2 T02050168
Loading
Personal Weather Stations






























Interactive Weather Map New forecast layout! Learn more

10-Day Weather Forecast

Advertisements
Track Severe Weather on mobile